This is the latest recevied weather packets stored in our database for station/object KD5FHA. If no packets are shown the sender has not sent any weather packets the latest 10 day(s).
| Time | Temp. | Humidity | Pressure | Rain* | Wind** | Luminosity | Snow |
|---|---|---|---|---|---|---|---|
| 1777598864 | 16.11° C | 84% | 1014.9 hPa | 0 mm | - | 0 W/m² | - |
| 1777598558 | 16.11° C | 84% | 1014.9 hPa | 0 mm | - | 0 W/m² | - |
| 1777598253 | 16.11° C | 84% | 1014.9 hPa | 0 mm | - | 0 W/m² | - |
| 1777597952 | 16.11° C | 84% | 1014.9 hPa | 0 mm | - | 1 W/m² | - |
| 1777597651 | 16.11° C | 84% | 1014.9 hPa | 0 mm | - | 1 W/m² | - |
| 1777597346 | 16.11° C | 84% | 1015 hPa | 0 mm | - | 1 W/m² | - |
| 1777597042 | 16.11° C | 84% | 1014.7 hPa | 0 mm | - | 3 W/m² | - |
| 1777596739 | 16.11° C | 85% | 1014.6 hPa | 0 mm | - | 4 W/m² | - |
| 1777596435 | 16.11° C | 85% | 1014.6 hPa | 0 mm | - | 6 W/m² | - |
| 1777596133 | 16.11° C | 84% | 1014.5 hPa | 0 mm | - | 7 W/m² | - |
| 1777595829 | 16.67° C | 85% | 1014.5 hPa | 0 mm | - | 12 W/m² | - |
| 1777595524 | 16.67° C | 85% | 1014.3 hPa | 0 mm | - | 18 W/m² | - |
| 1777595220 | 16.11° C | 84% | 1014.2 hPa | 0 mm | - | 18 W/m² | - |
| 1777594916 | 16.67° C | 85% | 1014.6 hPa | 0 mm | - | 12 W/m² | - |
| 1777594613 | 16.67° C | 84% | 1014.5 hPa | 0 mm | - | 14 W/m² | - |
| 1777594309 | 16.67° C | 84% | 1014.4 hPa | 0 mm | - | 26 W/m² | - |
| 1777594005 | 16.67° C | 84% | 1014.4 hPa | 0 mm | - | 30 W/m² | - |
| 1777593701 | 16.67° C | 85% | 1014.3 hPa | 0 mm | - | 22 W/m² | - |
| 1777593398 | 16.67° C | 84% | 1014 hPa | 0 mm | - | 51 W/m² | - |
| 1777593096 | 16.67° C | 85% | 1013.9 hPa | 0 mm | - | 73 W/m² | - |
| 1777592795 | 16.67° C | 84% | 1014.1 hPa | 0 mm | - | 44 W/m² | - |
| 1777592492 | 16.67° C | 84% | 1014 hPa | 0 mm | - | 48 W/m² | - |
| 1777592187 | 16.67° C | 84% | 1014 hPa | 0 mm | - | 59 W/m² | - |
| 1777591884 | 16.67° C | 84% | 1013.5 hPa | 0 mm | - | 106 W/m² | - |
| 1777591581 | 16.67° C | 85% | 1013.6 hPa | 0 mm | - | 138 W/m² | - |
* Rain latest hour (hover to see other rain measurements)
** Current wind speed in m/s (hover to see current wind gust speed)